Time,TemperatureF,DewpointF,PressureIn,WindDirection,WindDirectionDegrees,WindSpeedMPH,WindSpeedGustMPH,Humidity,HourlyPrecipIn,Conditions,Clouds,dailyrainin,SolarRadiationWatts/m^2,SoftwareType,DateUTC
2013-03-15 00:04:00,53.6,46.0,30.16,West,268,0.0,1.0,74,0.00,,,0.00,0,weatherlink.com 1.10,2013-03-15 07:04:00,
2013-03-15 00:19:00,53.2,45.0,30.16,West,268,0.0,0.0,74,0.00,,,0.00,0,weatherlink.com 1.10,2013-03-15 07:19:00,
2013-03-15 00:34:00,52.3,45.0,30.16,West,268,0.0,0.0,75,0.00,,,0.00,0,weatherlink.com 1.10,2013-03-15 07:34:00,
2013-03-15 00:49:00,51.5,45.0,30.16,West,268,0.0,0.0,77,0.00,,,0.00,0,weatherlink.com 1.10,2013-03-15 07:49:00,
2013-03-15 01:04:00,50.7,44.0,30.16,West,268,0.0,0.0,79,0.00,,,0.00,0,weatherlink.com 1.10,2013-03-15 08:04:00,
2013-03-15 01:19:00,49.9,44.0,30.16,West,268,0.0,0.0,80,0.00,,,0.00,0,weatherlink.com 1.10,2013-03-15 08:19:00,
2013-03-15 01:34:00,49.3,44.0,30.16,West,268,0.0,0.0,81,0.00,,,0.00,0,weatherlink.com 1.10,2013-03-15 08:34:00,
2013-03-15 01:49:00,48.8,44.0,30.16,West,268,0.0,0.0,82,0.00,,,0.00,0,weatherlink.com 1.10,2013-03-15 08:49:00,
2013-03-15 02:04:00,48.3,43.0,30.16,West,268,0.0,0.0,82,0.00,,,0.00,0,weatherlink.com 1.10,2013-03-15 09:04:00,
2013-03-15 02:19:00,47.8,43.0,30.17,West,268,0.0,0.0,84,0.00,,,0.00,0,weatherlink.com 1.10,2013-03-15 09:19:00,
2013-03-15 02:34:00,47.5,43.0,30.16,West,268,0.0,1.0,84,0.00,,,0.00,0,weatherlink.com 1.10,2013-03-15 09:34:00,
2013-03-15 02:49:00,47.4,43.0,30.16,West,268,0.0,0.0,85,0.00,,,0.00,0,weatherlink.com 1.10,2013-03-15 09:49:00,
2013-03-15 03:04:00,47.2,43.0,30.16,West,268,0.0,0.0,84,0.00,,,0.00,0,weatherlink.com 1.10,2013-03-15 10:04:00,
2013-03-15 03:20:00,46.8,43.0,30.15,West,268,0.0,0.0,85,0.00,,,0.00,0,weatherlink.com 1.10,2013-03-15 10:20:00,
2013-03-15 03:35:00,46.4,42.0,30.16,West,268,0.0,0.0,84,0.00,,,0.00,0,weatherlink.com 1.10,2013-03-15 10:35:00,
2013-03-15 03:50:00,45.9,42.0,30.16,West,268,0.0,0.0,85,0.00,,,0.00,0,weatherlink.com 1.10,2013-03-15 10:50:00,
2013-03-15 04:05:00,45.5,41.0,30.16,West,268,0.0,0.0,85,0.00,,,0.00,0,weatherlink.com 1.10,2013-03-15 11:05:00,
2013-03-15 04:20:00,45.1,41.0,30.15,West,268,0.0,0.0,85,0.00,,,0.00,0,weatherlink.com 1.10,2013-03-15 11:20:00,
2013-03-15 04:35:00,45.2,41.0,30.15,West,268,0.0,1.0,85,0.00,,,0.00,0,weatherlink.com 1.10,2013-03-15 11:35:00,
2013-03-15 04:50:00,45.3,41.0,30.15,West,268,0.0,1.0,86,0.00,,,0.00,0,weatherlink.com 1.10,2013-03-15 11:50:00,
2013-03-15 05:05:00,45.1,42.0,30.15,West,268,0.0,2.0,87,0.00,,,0.00,0,weatherlink.com 1.10,2013-03-15 12:05:00,
2013-03-15 05:20:00,45.1,42.0,30.15,West,268,0.0,0.0,87,0.00,,,0.00,0,weatherlink.com 1.10,2013-03-15 12:20:00,
2013-03-15 05:35:00,44.9,41.0,30.16,West,268,0.0,0.0,87,0.00,,,0.00,0,weatherlink.com 1.10,2013-03-15 12:35:00,
2013-03-15 05:50:00,44.8,41.0,30.15,West,268,0.0,0.0,86,0.00,,,0.00,0,weatherlink.com 1.10,2013-03-15 12:50:00,
2013-03-15 06:05:00,45.0,41.0,30.16,West,268,0.0,0.0,84,0.00,,,0.00,0,weatherlink.com 1.10,2013-03-15 13:05:00,
2013-03-15 06:20:00,44.8,41.0,30.15,West,268,0.0,0.0,85,0.00,,,0.00,0,weatherlink.com 1.10,2013-03-15 13:20:00,
2013-03-15 06:35:00,44.4,40.0,30.15,West,268,0.0,0.0,85,0.00,,,0.00,0,weatherlink.com 1.10,2013-03-15 13:35:00,
2013-03-15 06:50:00,44.2,40.0,30.15,West,268,0.0,0.0,86,0.00,,,0.00,0,weatherlink.com 1.10,2013-03-15 13:50:00,
2013-03-15 07:05:00,43.9,40.0,30.15,West,268,0.0,0.0,86,0.00,,,0.00,0,weatherlink.com 1.10,2013-03-15 14:05:00,
2013-03-15 07:20:00,43.7,40.0,30.15,West,268,0.0,0.0,87,0.00,,,0.00,5,weatherlink.com 1.10,2013-03-15 14:20:00,
2013-03-15 07:35:00,43.6,40.0,30.16,West,268,0.0,0.0,88,0.00,,,0.00,12,weatherlink.com 1.10,2013-03-15 14:35:00,
2013-03-15 07:50:00,44.3,41.0,30.16,West,268,0.0,0.0,89,0.00,,,0.00,53,weatherlink.com 1.10,2013-03-15 14:50:00,
2013-03-15 08:05:00,45.6,42.0,30.16,West,268,0.0,3.0,87,0.00,,,0.00,91,weatherlink.com 1.10,2013-03-15 15:05:00,
2013-03-15 08:20:00,47.2,42.0,30.16,West,268,2.0,2.0,83,0.00,,,0.00,186,weatherlink.com 1.10,2013-03-15 15:20:00,
2013-03-15 08:35:00,49.4,42.0,30.17,West,268,0.0,3.0,75,0.00,,,0.00,174,weatherlink.com 1.10,2013-03-15 15:35:00,
2013-03-15 08:50:00,50.2,42.0,30.17,West,268,0.0,1.0,74,0.00,,,0.00,171,weatherlink.com 1.10,2013-03-15 15:50:00,
2013-03-15 09:05:00,51.2,42.0,30.17,West,268,0.0,0.0,72,0.00,,,0.00,158,weatherlink.com 1.10,2013-03-15 16:05:00,
2013-03-15 09:20:00,51.9,42.0,30.17,West,268,0.0,0.0,70,0.00,,,0.00,158,weatherlink.com 1.10,2013-03-15 16:20:00,
2013-03-15 09:35:00,52.8,42.0,30.16,West,268,0.0,1.0,68,0.00,,,0.00,188,weatherlink.com 1.10,2013-03-15 16:35:00,
2013-03-15 09:50:00,54.1,42.0,30.17,West,268,1.0,3.0,65,0.00,,,0.00,220,weatherlink.com 1.10,2013-03-15 16:50:00,
2013-03-15 10:05:00,54.9,42.0,30.16,West,268,0.0,1.0,63,0.00,,,0.00,234,weatherlink.com 1.10,2013-03-15 17:05:00,
2013-03-15 10:20:00,55.5,43.0,30.16,West,268,0.0,1.0,63,0.00,,,0.00,246,weatherlink.com 1.10,2013-03-15 17:20:00,
2013-03-15 10:35:00,56.2,44.0,30.17,West,268,0.0,4.0,63,0.00,,,0.00,315,weatherlink.com 1.10,2013-03-15 17:35:00,
2013-03-15 10:50:00,56.8,45.0,30.17,West,268,0.0,2.0,64,0.00,,,0.00,304,weatherlink.com 1.10,2013-03-15 17:50:00,
2013-03-15 11:06:00,57.5,44.0,30.17,West,268,0.0,3.0,61,0.00,,,0.00,272,weatherlink.com 1.10,2013-03-15 18:06:00,
2013-03-15 11:21:00,58.2,45.0,30.17,West,268,1.0,3.0,62,0.00,,,0.00,680,weatherlink.com 1.10,2013-03-15 18:21:00,
2013-03-15 11:36:00,59.6,44.0,30.17,West,267,2.0,4.0,57,0.00,,,0.00,485,weatherlink.com 1.10,2013-03-15 18:36:00,
2013-03-15 12:21:00,62.7,45.0,30.16,West,267,0.0,4.0,52,0.00,,,0.00,388,weatherlink.com 1.10,2013-03-15 19:21:00,
2013-03-15 12:51:00,64.0,46.0,30.14,WSW,257,0.0,3.0,53,0.00,,,0.00,606,weatherlink.com 1.10,2013-03-15 19:51:00,
2013-03-15 13:06:00,65.2,47.0,30.14,WSW,239,2.0,5.0,53,0.00,,,0.00,779,weatherlink.com 1.10,2013-03-15 20:06:00,
2013-03-15 13:21:00,66.9,48.0,30.14,West,259,3.0,5.0,50,0.00,,,0.00,689,weatherlink.com 1.10,2013-03-15 20:21:00,
2013-03-15 13:36:00,67.6,48.0,30.13,WSW,257,0.0,5.0,50,0.00,,,0.00,633,weatherlink.com 1.10,2013-03-15 20:36:00,
2013-03-15 13:51:00,68.8,48.0,30.13,WSW,244,3.0,5.0,47,0.00,,,0.00,659,weatherlink.com 1.10,2013-03-15 20:51:00,
2013-03-15 14:06:00,69.4,47.0,30.12,WSW,244,1.0,3.0,45,0.00,,,0.00,578,weatherlink.com 1.10,2013-03-15 21:06:00,
2013-03-15 14:21:00,70.0,47.0,30.11,WSW,244,0.0,2.0,44,0.00,,,0.00,411,weatherlink.com 1.10,2013-03-15 21:21:00,
2013-03-15 14:36:00,70.5,47.0,30.11,WSW,244,1.0,4.0,44,0.00,,,0.00,424,weatherlink.com 1.10,2013-03-15 21:36:00,
2013-03-15 14:51:00,70.8,49.0,30.11,West,273,2.0,7.0,46,0.00,,,0.00,526,weatherlink.com 1.10,2013-03-15 21:51:00,
2013-03-15 15:06:00,71.0,50.0,30.11,WSW,248,3.0,6.0,47,0.00,,,0.00,534,weatherlink.com 1.10,2013-03-15 22:06:00,
2013-03-15 15:21:00,71.3,50.0,30.11,WNW,288,0.0,6.0,47,0.00,,,0.00,387,weatherlink.com 1.10,2013-03-15 22:21:00,
2013-03-15 15:36:00,71.7,50.0,30.10,West,263,2.0,7.0,47,0.00,,,0.00,432,weatherlink.com 1.10,2013-03-15 22:36:00,
2013-03-15 15:52:00,72.5,52.0,30.09,West,262,5.0,8.0,48,0.00,,,0.00,348,weatherlink.com 1.10,2013-03-15 22:52:00,
2013-03-15 16:07:00,72.6,52.0,30.09,West,265,3.0,9.0,48,0.00,,,0.00,411,weatherlink.com 1.10,2013-03-15 23:07:00,
2013-03-15 16:22:00,72.8,51.0,30.09,WNW,284,5.0,9.0,47,0.00,,,0.00,397,weatherlink.com 1.10,2013-03-15 23:22:00,
2013-03-15 16:37:00,72.6,51.0,30.09,West,279,3.0,9.0,46,0.00,,,0.00,399,weatherlink.com 1.10,2013-03-15 23:37:00,
2013-03-15 16:52:00,72.3,50.0,30.09,WSW,244,7.0,9.0,45,0.00,,,0.00,278,weatherlink.com 1.10,2013-03-15 23:52:00,
2013-03-15 17:07:00,71.7,50.0,30.10,WNW,298,5.0,10.0,47,0.00,,,0.00,236,weatherlink.com 1.10,2013-03-16 00:07:00,
2013-03-15 17:22:00,71.5,50.0,30.09,WSW,256,6.0,10.0,46,0.00,,,0.00,197,weatherlink.com 1.10,2013-03-16 00:22:00,
2013-03-15 17:37:00,70.5,48.0,30.09,WNW,286,3.0,9.0,45,0.00,,,0.00,158,weatherlink.com 1.10,2013-03-16 00:37:00,
2013-03-15 17:52:00,70.0,48.0,30.09,WSW,250,0.0,6.0,46,0.00,,,0.00,127,weatherlink.com 1.10,2013-03-16 00:52:00,
2013-03-15 18:07:00,69.3,51.0,30.09,South,176,0.0,3.0,53,0.00,,,0.00,100,weatherlink.com 1.10,2013-03-16 01:07:00,
2013-03-15 18:22:00,68.2,49.0,30.09,SE,144,2.0,5.0,51,0.00,,,0.00,63,weatherlink.com 1.10,2013-03-16 01:22:00,
2013-03-15 18:37:00,67.3,50.0,30.09,SSE,164,0.0,3.0,54,0.00,,,0.00,44,weatherlink.com 1.10,2013-03-16 01:37:00,
2013-03-15 18:52:00,66.4,49.0,30.09,SSE,164,1.0,3.0,54,0.00,,,0.00,21,weatherlink.com 1.10,2013-03-16 01:52:00,
2013-03-15 19:07:00,65.3,49.0,30.09,SSE,164,0.0,2.0,55,0.00,,,0.00,11,weatherlink.com 1.10,2013-03-16 02:07:00,
2013-03-15 19:22:00,64.4,48.0,30.09,SSE,164,0.0,3.0,55,0.00,,,0.00,0,weatherlink.com 1.10,2013-03-16 02:22:00,
2013-03-15 19:37:00,63.3,47.0,30.09,SSE,164,0.0,1.0,56,0.00,,,0.00,0,weatherlink.com 1.10,2013-03-16 02:37:00,
2013-03-15 19:52:00,62.7,48.0,30.09,SSE,164,0.0,1.0,59,0.00,,,0.00,0,weatherlink.com 1.10,2013-03-16 02:52:00,
2013-03-15 20:07:00,62.0,49.0,30.08,SSE,164,0.0,0.0,62,0.00,,,0.00,0,weatherlink.com 1.10,2013-03-16 03:07:00,
2013-03-15 20:22:00,61.2,49.0,30.08,SSE,164,0.0,0.0,65,0.00,,,0.00,0,weatherlink.com 1.10,2013-03-16 03:22:00,
2013-03-15 20:37:00,60.5,49.0,30.09,SSE,164,0.0,1.0,66,0.00,,,0.00,0,weatherlink.com 1.10,2013-03-16 03:37:00,
2013-03-15 20:52:00,59.9,49.0,30.08,SSE,164,0.0,1.0,67,0.00,,,0.00,0,weatherlink.com 1.10,2013-03-16 03:52:00,
2013-03-15 21:07:00,59.2,49.0,30.09,SSE,164,0.0,1.0,69,0.00,,,0.00,0,weatherlink.com 1.10,2013-03-16 04:07:00,
2013-03-15 21:22:00,58.4,49.0,30.09,SSE,164,0.0,0.0,70,0.00,,,0.00,0,weatherlink.com 1.10,2013-03-16 04:22:00,
2013-03-15 21:37:00,57.9,49.0,30.09,SSE,164,0.0,0.0,72,0.00,,,0.00,0,weatherlink.com 1.10,2013-03-16 04:37:00,
2013-03-15 21:52:00,57.3,48.0,30.10,SSE,164,0.0,1.0,72,0.00,,,0.00,0,weatherlink.com 1.10,2013-03-16 04:52:00,
2013-03-15 22:07:00,56.7,48.0,30.11,SSE,164,0.0,0.0,73,0.00,,,0.00,0,weatherlink.com 1.10,2013-03-16 05:07:00,
2013-03-15 22:22:00,56.0,48.0,30.11,SSE,164,0.0,0.0,74,0.00,,,0.00,0,weatherlink.com 1.10,2013-03-16 05:22:00,
2013-03-15 22:37:00,55.3,48.0,30.11,SSE,164,0.0,0.0,75,0.00,,,0.00,0,weatherlink.com 1.10,2013-03-16 05:37:00,
2013-03-15 22:52:00,55.0,48.0,30.11,SSE,164,0.0,1.0,76,0.00,,,0.00,0,weatherlink.com 1.10,2013-03-16 05:52:00,
2013-03-15 23:07:00,54.5,47.0,30.11,SSE,164,0.0,3.0,77,0.00,,,0.00,0,weatherlink.com 1.10,2013-03-16 06:07:00,
2013-03-15 23:22:00,54.1,48.0,30.11,West,262,0.0,4.0,80,0.00,,,0.00,0,weatherlink.com 1.10,2013-03-16 06:22:00,
2013-03-15 23:37:00,53.4,48.0,30.11,West,262,0.0,0.0,82,0.00,,,0.00,0,weatherlink.com 1.10,2013-03-16 06:37:00,
2013-03-15 23:52:00,52.6,48.0,30.11,West,262,0.0,1.0,84,0.00,,,0.00,0,weatherlink.com 1.10,2013-03-16 06:52:00,